sensor_id;sensor_type;location;lat;lon;timestamp;P1;durP1;ratioP1;P2;durP2;ratioP2
19830;SDS011;10076;52.008;4.708;2023-05-02T00:02:10;15.90;;;5.47;;
19830;SDS011;10076;52.008;4.708;2023-05-02T00:04:35;15.20;;;6.27;;
19830;SDS011;10076;52.008;4.708;2023-05-02T00:07:01;17.20;;;6.67;;
19830;SDS011;10076;52.008;4.708;2023-05-02T00:09:27;14.57;;;6.50;;
19830;SDS011;10076;52.008;4.708;2023-05-02T00:11:53;15.63;;;6.13;;
19830;SDS011;10076;52.008;4.708;2023-05-02T00:14:18;14.93;;;5.77;;
19830;SDS011;10076;52.008;4.708;2023-05-02T00:16:43;16.50;;;6.87;;
19830;SDS011;10076;52.008;4.708;2023-05-02T00:19:09;14.27;;;6.53;;
19830;SDS011;10076;52.008;4.708;2023-05-02T00:21:34;14.30;;;6.33;;
19830;SDS011;10076;52.008;4.708;2023-05-02T00:23:59;12.73;;;5.73;;
19830;SDS011;10076;52.008;4.708;2023-05-02T00:26:25;14.87;;;6.37;;
19830;SDS011;10076;52.008;4.708;2023-05-02T00:28:51;15.37;;;6.07;;
19830;SDS011;10076;52.008;4.708;2023-05-02T00:31:16;17.30;;;6.65;;
19830;SDS011;10076;52.008;4.708;2023-05-02T00:33:42;13.53;;;5.73;;
19830;SDS011;10076;52.008;4.708;2023-05-02T00:36:14;13.37;;;6.63;;
19830;SDS011;10076;52.008;4.708;2023-05-02T00:38:40;11.63;;;5.23;;
19830;SDS011;10076;52.008;4.708;2023-05-02T00:41:05;11.80;;;4.80;;
19830;SDS011;10076;52.008;4.708;2023-05-02T00:43:30;7.30;;;3.80;;
19830;SDS011;10076;52.008;4.708;2023-05-02T00:45:56;9.03;;;3.77;;
19830;SDS011;10076;52.008;4.708;2023-05-02T00:48:23;5.80;;;3.47;;
19830;SDS011;10076;52.008;4.708;2023-05-02T00:50:49;4.97;;;3.40;;
19830;SDS011;10076;52.008;4.708;2023-05-02T00:53:14;7.33;;;3.17;;
19830;SDS011;10076;52.008;4.708;2023-05-02T00:55:40;5.17;;;2.77;;
19830;SDS011;10076;52.008;4.708;2023-05-02T00:58:12;4.87;;;2.53;;
19830;SDS011;10076;52.008;4.708;2023-05-02T01:00:42;8.87;;;3.37;;
19830;SDS011;10076;52.008;4.708;2023-05-02T01:12:16;8.33;;;3.60;;
19830;SDS011;10076;52.008;4.708;2023-05-02T01:14:52;6.57;;;2.73;;
19830;SDS011;10076;52.008;4.708;2023-05-02T01:17:19;7.30;;;2.60;;
19830;SDS011;10076;52.008;4.708;2023-05-02T01:19:51;7.00;;;2.43;;
19830;SDS011;10076;52.008;4.708;2023-05-02T01:22:20;4.47;;;2.10;;
19830;SDS011;10076;52.008;4.708;2023-05-02T01:30:26;9.43;;;2.30;;
19830;SDS011;10076;52.008;4.708;2023-05-02T01:32:54;3.37;;;2.00;;
19830;SDS011;10076;52.008;4.708;2023-05-02T01:35:21;3.23;;;1.77;;
19830;SDS011;10076;52.008;4.708;2023-05-02T01:37:48;3.67;;;1.70;;
19830;SDS011;10076;52.008;4.708;2023-05-02T01:40:17;4.60;;;1.97;;
19830;SDS011;10076;52.008;4.708;2023-05-02T01:42:45;3.57;;;2.00;;
19830;SDS011;10076;52.008;4.708;2023-05-02T01:45:12;6.43;;;2.07;;
19830;SDS011;10076;52.008;4.708;2023-05-02T01:47:39;4.23;;;1.90;;
19830;SDS011;10076;52.008;4.708;2023-05-02T01:50:07;6.13;;;2.40;;
19830;SDS011;10076;52.008;4.708;2023-05-02T01:52:35;3.80;;;2.53;;
19830;SDS011;10076;52.008;4.708;2023-05-02T01:55:02;5.37;;;2.20;;
19830;SDS011;10076;52.008;4.708;2023-05-02T01:57:30;9.17;;;2.10;;
19830;SDS011;10076;52.008;4.708;2023-05-02T01:59:56;5.90;;;1.80;;
19830;SDS011;10076;52.008;4.708;2023-05-02T02:02:24;6.80;;;2.73;;
19830;SDS011;10076;52.008;4.708;2023-05-02T02:04:51;7.70;;;2.47;;
19830;SDS011;10076;52.008;4.708;2023-05-02T02:07:18;7.37;;;2.50;;
19830;SDS011;10076;52.008;4.708;2023-05-02T02:09:44;4.80;;;2.27;;
19830;SDS011;10076;52.008;4.708;2023-05-02T02:12:10;9.63;;;2.00;;
19830;SDS011;10076;52.008;4.708;2023-05-02T02:14:41;3.40;;;1.90;;
19830;SDS011;10076;52.008;4.708;2023-05-02T02:17:26;4.37;;;1.60;;
19830;SDS011;10076;52.008;4.708;2023-05-02T02:20:02;7.93;;;1.70;;
19830;SDS011;10076;52.008;4.708;2023-05-02T02:22:30;3.90;;;1.70;;
19830;SDS011;10076;52.008;4.708;2023-05-02T02:24:58;5.67;;;2.10;;
19830;SDS011;10076;52.008;4.708;2023-05-02T02:27:25;3.50;;;1.27;;
19830;SDS011;10076;52.008;4.708;2023-05-02T02:29:50;2.70;;;1.53;;
19830;SDS011;10076;52.008;4.708;2023-05-02T02:32:16;5.47;;;1.40;;
19830;SDS011;10076;52.008;4.708;2023-05-02T02:34:41;2.57;;;1.40;;
19830;SDS011;10076;52.008;4.708;2023-05-02T02:37:08;1.23;;;1.10;;
19830;SDS011;10076;52.008;4.708;2023-05-02T02:45:04;3.73;;;1.17;;
19830;SDS011;10076;52.008;4.708;2023-05-02T02:47:42;3.40;;;1.00;;
19830;SDS011;10076;52.008;4.708;2023-05-02T02:55:23;3.97;;;1.03;;
19830;SDS011;10076;52.008;4.708;2023-05-02T03:00:50;3.97;;;1.83;;
19830;SDS011;10076;52.008;4.708;2023-05-02T03:03:17;3.60;;;1.13;;
19830;SDS011;10076;52.008;4.708;2023-05-02T03:05:46;2.33;;;1.20;;
19830;SDS011;10076;52.008;4.708;2023-05-02T03:08:12;4.47;;;0.97;;
19830;SDS011;10076;52.008;4.708;2023-05-02T03:10:38;1.67;;;0.87;;
19830;SDS011;10076;52.008;4.708;2023-05-02T03:13:03;4.30;;;0.90;;
19830;SDS011;10076;52.008;4.708;2023-05-02T03:18:12;1.70;;;1.17;;
19830;SDS011;10076;52.008;4.708;2023-05-02T03:20:38;4.07;;;1.10;;
19830;SDS011;10076;52.008;4.708;2023-05-02T03:23:03;1.63;;;0.83;;
19830;SDS011;10076;52.008;4.708;2023-05-02T03:25:29;1.20;;;0.73;;
19830;SDS011;10076;52.008;4.708;2023-05-02T03:27:55;2.50;;;1.30;;
19830;SDS011;10076;52.008;4.708;2023-05-02T03:30:21;3.03;;;0.97;;
19830;SDS011;10076;52.008;4.708;2023-05-02T03:32:46;1.87;;;1.10;;
19830;SDS011;10076;52.008;4.708;2023-05-02T03:35:12;1.10;;;0.80;;
19830;SDS011;10076;52.008;4.708;2023-05-02T03:37:38;3.80;;;1.33;;
19830;SDS011;10076;52.008;4.708;2023-05-02T03:40:03;1.93;;;0.97;;
19830;SDS011;10076;52.008;4.708;2023-05-02T03:42:29;1.00;;;0.90;;
19830;SDS011;10076;52.008;4.708;2023-05-02T03:44:54;4.83;;;1.50;;
19830;SDS011;10076;52.008;4.708;2023-05-02T03:47:20;3.90;;;1.20;;
19830;SDS011;10076;52.008;4.708;2023-05-02T03:49:45;2.83;;;1.47;;
19830;SDS011;10076;52.008;4.708;2023-05-02T03:52:10;1.63;;;1.10;;
19830;SDS011;10076;52.008;4.708;2023-05-02T03:54:36;6.40;;;1.50;;
19830;SDS011;10076;52.008;4.708;2023-05-02T03:57:02;2.90;;;1.13;;
19830;SDS011;10076;52.008;4.708;2023-05-02T03:59:30;4.27;;;1.10;;
19830;SDS011;10076;52.008;4.708;2023-05-02T04:01:56;3.57;;;1.30;;
19830;SDS011;10076;52.008;4.708;2023-05-02T04:04:22;1.57;;;0.97;;
19830;SDS011;10076;52.008;4.708;2023-05-02T04:06:47;2.37;;;1.00;;
19830;SDS011;10076;52.008;4.708;2023-05-02T04:09:12;3.43;;;1.13;;
19830;SDS011;10076;52.008;4.708;2023-05-02T04:11:38;2.90;;;1.20;;
19830;SDS011;10076;52.008;4.708;2023-05-02T04:14:03;1.77;;;1.10;;
19830;SDS011;10076;52.008;4.708;2023-05-02T04:16:28;4.03;;;1.20;;
19830;SDS011;10076;52.008;4.708;2023-05-02T04:18:53;1.43;;;0.90;;
19830;SDS011;10076;52.008;4.708;2023-05-02T04:21:19;1.67;;;1.57;;
19830;SDS011;10076;52.008;4.708;2023-05-02T04:23:44;1.27;;;1.00;;
19830;SDS011;10076;52.008;4.708;2023-05-02T04:26:09;1.60;;;1.00;;
19830;SDS011;10076;52.008;4.708;2023-05-02T04:28:35;2.40;;;0.80;;
19830;SDS011;10076;52.008;4.708;2023-05-02T04:31:00;1.93;;;1.10;;
19830;SDS011;10076;52.008;4.708;2023-05-02T04:33:28;4.97;;;1.27;;
19830;SDS011;10076;52.008;4.708;2023-05-02T04:35:54;2.60;;;1.00;;
19830;SDS011;10076;52.008;4.708;2023-05-02T04:38:19;1.80;;;1.07;;
19830;SDS011;10076;52.008;4.708;2023-05-02T04:40:44;1.40;;;0.90;;
19830;SDS011;10076;52.008;4.708;2023-05-02T04:43:10;1.40;;;1.10;;
19830;SDS011;10076;52.008;4.708;2023-05-02T04:45:35;2.80;;;1.43;;
19830;SDS011;10076;52.008;4.708;2023-05-02T04:48:01;2.53;;;0.87;;
19830;SDS011;10076;52.008;4.708;2023-05-02T04:50:26;3.60;;;0.90;;
19830;SDS011;10076;52.008;4.708;2023-05-02T04:52:52;1.63;;;0.93;;
19830;SDS011;10076;52.008;4.708;2023-05-02T04:55:18;4.00;;;1.27;;
19830;SDS011;10076;52.008;4.708;2023-05-02T04:57:43;3.60;;;1.17;;
19830;SDS011;10076;52.008;4.708;2023-05-02T05:00:09;5.83;;;1.30;;
19830;SDS011;10076;52.008;4.708;2023-05-02T05:02:35;3.87;;;0.93;;
19830;SDS011;10076;52.008;4.708;2023-05-02T05:05:00;1.10;;;0.90;;
19830;SDS011;10076;52.008;4.708;2023-05-02T05:07:26;3.80;;;1.20;;
19830;SDS011;10076;52.008;4.708;2023-05-02T05:09:52;1.63;;;1.00;;
19830;SDS011;10076;52.008;4.708;2023-05-02T05:12:17;2.70;;;1.27;;
19830;SDS011;10076;52.008;4.708;2023-05-02T05:14:43;1.83;;;1.07;;
19830;SDS011;10076;52.008;4.708;2023-05-02T05:17:09;5.73;;;1.07;;
19830;SDS011;10076;52.008;4.708;2023-05-02T05:19:34;2.63;;;1.33;;
19830;SDS011;10076;52.008;4.708;2023-05-02T05:21:59;2.23;;;0.90;;
19830;SDS011;10076;52.008;4.708;2023-05-02T05:24:24;4.17;;;1.40;;
19830;SDS011;10076;52.008;4.708;2023-05-02T05:26:50;2.87;;;1.50;;
19830;SDS011;10076;52.008;4.708;2023-05-02T05:29:15;3.07;;;1.23;;
19830;SDS011;10076;52.008;4.708;2023-05-02T05:31:42;6.17;;;1.10;;
19830;SDS011;10076;52.008;4.708;2023-05-02T05:34:07;2.73;;;1.50;;
19830;SDS011;10076;52.008;4.708;2023-05-02T05:36:33;3.73;;;1.27;;
19830;SDS011;10076;52.008;4.708;2023-05-02T05:38:58;2.30;;;1.40;;
19830;SDS011;10076;52.008;4.708;2023-05-02T05:41:23;5.83;;;1.30;;
19830;SDS011;10076;52.008;4.708;2023-05-02T05:43:49;3.47;;;1.40;;
19830;SDS011;10076;52.008;4.708;2023-05-02T05:46:14;4.70;;;1.60;;
19830;SDS011;10076;52.008;4.708;2023-05-02T05:48:39;5.77;;;1.77;;
19830;SDS011;10076;52.008;4.708;2023-05-02T05:51:05;5.37;;;1.57;;
19830;SDS011;10076;52.008;4.708;2023-05-02T05:53:31;3.97;;;1.23;;
19830;SDS011;10076;52.008;4.708;2023-05-02T05:55:56;4.63;;;1.50;;
19830;SDS011;10076;52.008;4.708;2023-05-02T05:58:22;3.00;;;1.60;;
19830;SDS011;10076;52.008;4.708;2023-05-02T06:00:47;12.00;;;2.03;;
19830;SDS011;10076;52.008;4.708;2023-05-02T06:03:13;8.20;;;1.63;;
19830;SDS011;10076;52.008;4.708;2023-05-02T06:05:38;4.77;;;1.53;;
19830;SDS011;10076;52.008;4.708;2023-05-02T06:08:04;4.60;;;1.40;;
19830;SDS011;10076;52.008;4.708;2023-05-02T06:10:30;5.27;;;1.43;;
19830;SDS011;10076;52.008;4.708;2023-05-02T06:12:56;4.10;;;1.50;;
19830;SDS011;10076;52.008;4.708;2023-05-02T06:15:21;2.70;;;1.43;;
19830;SDS011;10076;52.008;4.708;2023-05-02T06:17:46;4.57;;;1.37;;
19830;SDS011;10076;52.008;4.708;2023-05-02T06:20:12;4.13;;;1.40;;
19830;SDS011;10076;52.008;4.708;2023-05-02T06:22:37;2.77;;;1.63;;
19830;SDS011;10076;52.008;4.708;2023-05-02T06:25:03;3.57;;;1.53;;
19830;SDS011;10076;52.008;4.708;2023-05-02T06:27:29;8.57;;;1.50;;
19830;SDS011;10076;52.008;4.708;2023-05-02T06:29:55;5.43;;;1.60;;
19830;SDS011;10076;52.008;4.708;2023-05-02T06:32:21;8.83;;;1.90;;
19830;SDS011;10076;52.008;4.708;2023-05-02T06:34:46;3.33;;;1.47;;
19830;SDS011;10076;52.008;4.708;2023-05-02T06:37:11;4.23;;;1.50;;
19830;SDS011;10076;52.008;4.708;2023-05-02T06:39:36;4.40;;;1.57;;
19830;SDS011;10076;52.008;4.708;2023-05-02T06:42:02;4.90;;;1.60;;
19830;SDS011;10076;52.008;4.708;2023-05-02T06:44:27;5.23;;;1.80;;
19830;SDS011;10076;52.008;4.708;2023-05-02T06:46:53;5.93;;;1.80;;
19830;SDS011;10076;52.008;4.708;2023-05-02T06:49:19;4.37;;;1.50;;
19830;SDS011;10076;52.008;4.708;2023-05-02T06:51:45;4.13;;;2.00;;
19830;SDS011;10076;52.008;4.708;2023-05-02T06:54:10;2.17;;;1.40;;
19830;SDS011;10076;52.008;4.708;2023-05-02T06:56:36;4.37;;;2.03;;
19830;SDS011;10076;52.008;4.708;2023-05-02T06:59:01;5.87;;;1.80;;
19830;SDS011;10076;52.008;4.708;2023-05-02T07:01:26;12.00;;;1.70;;
19830;SDS011;10076;52.008;4.708;2023-05-02T07:03:52;2.80;;;1.23;;
19830;SDS011;10076;52.008;4.708;2023-05-02T07:06:18;6.10;;;1.60;;
19830;SDS011;10076;52.008;4.708;2023-05-02T07:08:43;4.90;;;2.07;;
19830;SDS011;10076;52.008;4.708;2023-05-02T07:11:08;4.30;;;1.73;;
19830;SDS011;10076;52.008;4.708;2023-05-02T07:13:34;6.27;;;1.83;;
19830;SDS011;10076;52.008;4.708;2023-05-02T07:15:59;5.27;;;1.97;;
19830;SDS011;10076;52.008;4.708;2023-05-02T07:18:25;5.23;;;1.93;;
19830;SDS011;10076;52.008;4.708;2023-05-02T07:20:50;3.90;;;1.30;;
19830;SDS011;10076;52.008;4.708;2023-05-02T07:23:16;2.93;;;1.53;;
19830;SDS011;10076;52.008;4.708;2023-05-02T07:25:41;3.60;;;1.43;;
19830;SDS011;10076;52.008;4.708;2023-05-02T07:28:07;3.60;;;1.87;;
19830;SDS011;10076;52.008;4.708;2023-05-02T07:30:32;3.50;;;1.20;;
19830;SDS011;10076;52.008;4.708;2023-05-02T07:32:57;3.83;;;1.50;;
19830;SDS011;10076;52.008;4.708;2023-05-02T07:35:23;3.73;;;1.40;;
19830;SDS011;10076;52.008;4.708;2023-05-02T07:37:48;4.27;;;1.17;;
19830;SDS011;10076;52.008;4.708;2023-05-02T07:40:13;2.35;;;1.42;;
19830;SDS011;10076;52.008;4.708;2023-05-02T07:42:39;4.77;;;1.67;;
19830;SDS011;10076;52.008;4.708;2023-05-02T07:45:06;4.07;;;1.47;;
19830;SDS011;10076;52.008;4.708;2023-05-02T07:47:32;3.67;;;1.47;;
19830;SDS011;10076;52.008;4.708;2023-05-02T07:49:57;6.13;;;1.40;;
19830;SDS011;10076;52.008;4.708;2023-05-02T07:52:22;2.83;;;1.27;;
19830;SDS011;10076;52.008;4.708;2023-05-02T07:54:48;3.93;;;1.63;;
19830;SDS011;10076;52.008;4.708;2023-05-02T07:57:13;4.60;;;1.30;;
19830;SDS011;10076;52.008;4.708;2023-05-02T07:59:39;2.70;;;1.30;;
19830;SDS011;10076;52.008;4.708;2023-05-02T08:02:04;5.57;;;1.30;;
19830;SDS011;10076;52.008;4.708;2023-05-02T08:04:29;2.53;;;1.10;;
19830;SDS011;10076;52.008;4.708;2023-05-02T08:06:55;2.03;;;1.20;;
19830;SDS011;10076;52.008;4.708;2023-05-02T08:09:20;3.17;;;1.50;;
19830;SDS011;10076;52.008;4.708;2023-05-02T08:11:45;2.50;;;1.20;;
19830;SDS011;10076;52.008;4.708;2023-05-02T08:14:11;3.17;;;1.30;;
19830;SDS011;10076;52.008;4.708;2023-05-02T08:16:36;1.45;;;1.15;;
19830;SDS011;10076;52.008;4.708;2023-05-02T08:19:02;4.47;;;1.33;;
19830;SDS011;10076;52.008;4.708;2023-05-02T08:21:27;7.25;;;1.25;;
19830;SDS011;10076;52.008;4.708;2023-05-02T08:23:56;5.18;;;1.10;;
19830;SDS011;10076;52.008;4.708;2023-05-02T08:26:22;4.10;;;1.33;;
19830;SDS011;10076;52.008;4.708;2023-05-02T08:28:48;2.95;;;1.30;;
19830;SDS011;10076;52.008;4.708;2023-05-02T08:31:15;5.13;;;1.30;;
19830;SDS011;10076;52.008;4.708;2023-05-02T08:33:40;1.08;;;0.98;;
19830;SDS011;10076;52.008;4.708;2023-05-02T08:36:12;2.67;;;1.05;;
19830;SDS011;10076;52.008;4.708;2023-05-02T08:38:41;2.90;;;1.10;;
19830;SDS011;10076;52.008;4.708;2023-05-02T08:41:14;2.38;;;1.25;;
19830;SDS011;10076;52.008;4.708;2023-05-02T08:43:41;3.85;;;1.30;;
19830;SDS011;10076;52.008;4.708;2023-05-02T08:46:08;4.78;;;1.40;;
19830;SDS011;10076;52.008;4.708;2023-05-02T08:48:35;2.50;;;1.23;;
19830;SDS011;10076;52.008;4.708;2023-05-02T08:51:07;3.63;;;1.23;;
19830;SDS011;10076;52.008;4.708;2023-05-02T08:53:33;1.63;;;1.08;;
19830;SDS011;10076;52.008;4.708;2023-05-02T08:56:00;1.85;;;1.40;;
19830;SDS011;10076;52.008;4.708;2023-05-02T08:58:25;2.53;;;1.40;;
19830;SDS011;10076;52.008;4.708;2023-05-02T09:00:51;1.73;;;1.20;;
19830;SDS011;10076;52.008;4.708;2023-05-02T09:03:22;1.95;;;1.20;;
19830;SDS011;10076;52.008;4.708;2023-05-02T09:05:53;1.98;;;1.13;;
19830;SDS011;10076;52.008;4.708;2023-05-02T09:08:23;1.02;;;0.93;;
19830;SDS011;10076;52.008;4.708;2023-05-02T09:10:50;1.67;;;1.10;;
19830;SDS011;10076;52.008;4.708;2023-05-02T09:13:32;2.30;;;1.13;;
19830;SDS011;10076;52.008;4.708;2023-05-02T09:16:09;2.70;;;1.38;;
19830;SDS011;10076;52.008;4.708;2023-05-02T09:18:40;5.95;;;1.60;;
19830;SDS011;10076;52.008;4.708;2023-05-02T09:21:09;4.07;;;1.20;;
19830;SDS011;10076;52.008;4.708;2023-05-02T09:23:40;4.40;;;1.38;;
19830;SDS011;10076;52.008;4.708;2023-05-02T09:26:19;1.70;;;1.17;;
19830;SDS011;10076;52.008;4.708;2023-05-02T09:28:52;1.98;;;1.42;;
19830;SDS011;10076;52.008;4.708;2023-05-02T09:31:21;1.20;;;1.10;;
19830;SDS011;10076;52.008;4.708;2023-05-02T09:33:51;5.88;;;1.95;;
19830;SDS011;10076;52.008;4.708;2023-05-02T09:36:18;1.52;;;0.90;;
19830;SDS011;10076;52.008;4.708;2023-05-02T09:38:45;2.03;;;1.25;;
19830;SDS011;10076;52.008;4.708;2023-05-02T09:41:13;1.95;;;1.15;;
19830;SDS011;10076;52.008;4.708;2023-05-02T09:43:39;1.80;;;1.20;;
19830;SDS011;10076;52.008;4.708;2023-05-02T09:46:05;1.90;;;1.35;;
19830;SDS011;10076;52.008;4.708;2023-05-02T09:48:54;2.80;;;1.30;;
19830;SDS011;10076;52.008;4.708;2023-05-02T09:51:21;1.50;;;1.20;;
19830;SDS011;10076;52.008;4.708;2023-05-02T09:53:47;2.17;;;1.50;;
19830;SDS011;10076;52.008;4.708;2023-05-02T09:56:13;3.13;;;1.45;;
19830;SDS011;10076;52.008;4.708;2023-05-02T09:58:39;2.20;;;1.33;;
19830;SDS011;10076;52.008;4.708;2023-05-02T10:01:04;3.17;;;1.35;;
19830;SDS011;10076;52.008;4.708;2023-05-02T10:03:30;2.75;;;1.20;;
19830;SDS011;10076;52.008;4.708;2023-05-02T10:05:58;4.00;;;1.25;;
19830;SDS011;10076;52.008;4.708;2023-05-02T10:08:25;3.58;;;1.50;;
19830;SDS011;10076;52.008;4.708;2023-05-02T10:10:54;1.60;;;1.40;;
19830;SDS011;10076;52.008;4.708;2023-05-02T10:13:21;1.98;;;1.10;;
19830;SDS011;10076;52.008;4.708;2023-05-02T10:15:49;2.03;;;1.30;;
19830;SDS011;10076;52.008;4.708;2023-05-02T10:21:11;4.28;;;1.70;;
19830;SDS011;10076;52.008;4.708;2023-05-02T10:23:48;3.15;;;1.40;;
19830;SDS011;10076;52.008;4.708;2023-05-02T10:26:17;4.35;;;1.80;;
19830;SDS011;10076;52.008;4.708;2023-05-02T10:28:45;5.40;;;1.75;;
19830;SDS011;10076;52.008;4.708;2023-05-02T10:31:14;1.98;;;1.40;;
19830;SDS011;10076;52.008;4.708;2023-05-02T10:33:40;2.60;;;1.48;;
19830;SDS011;10076;52.008;4.708;2023-05-02T10:36:06;2.85;;;1.48;;
19830;SDS011;10076;52.008;4.708;2023-05-02T10:38:34;3.97;;;1.65;;
19830;SDS011;10076;52.008;4.708;2023-05-02T10:41:01;2.20;;;1.35;;
19830;SDS011;10076;52.008;4.708;2023-05-02T10:43:33;3.40;;;1.40;;
19830;SDS011;10076;52.008;4.708;2023-05-02T10:46:00;3.60;;;1.60;;
19830;SDS011;10076;52.008;4.708;2023-05-02T10:48:27;2.38;;;1.42;;
19830;SDS011;10076;52.008;4.708;2023-05-02T10:50:54;5.25;;;1.73;;
19830;SDS011;10076;52.008;4.708;2023-05-02T10:53:30;2.60;;;1.50;;
19830;SDS011;10076;52.008;4.708;2023-05-02T10:56:11;3.03;;;1.58;;
19830;SDS011;10076;52.008;4.708;2023-05-02T10:58:47;4.00;;;1.80;;
19830;SDS011;10076;52.008;4.708;2023-05-02T11:06:26;4.18;;;1.63;;
19830;SDS011;10076;52.008;4.708;2023-05-02T11:11:40;4.15;;;1.65;;
19830;SDS011;10076;52.008;4.708;2023-05-02T11:14:08;2.88;;;1.80;;
19830;SDS011;10076;52.008;4.708;2023-05-02T11:19:21;4.10;;;1.70;;
19830;SDS011;10076;52.008;4.708;2023-05-02T11:21:47;2.65;;;1.80;;
19830;SDS011;10076;52.008;4.708;2023-05-02T11:24:35;5.20;;;2.08;;
19830;SDS011;10076;52.008;4.708;2023-05-02T11:32:24;2.53;;;1.90;;
19830;SDS011;10076;52.008;4.708;2023-05-02T11:35:22;4.10;;;1.83;;
19830;SDS011;10076;52.008;4.708;2023-05-02T11:37:57;2.47;;;1.52;;
19830;SDS011;10076;52.008;4.708;2023-05-02T11:40:25;5.85;;;1.90;;
19830;SDS011;10076;52.008;4.708;2023-05-02T11:42:52;2.22;;;1.85;;
19830;SDS011;10076;52.008;4.708;2023-05-02T11:45:18;4.07;;;1.80;;
19830;SDS011;10076;52.008;4.708;2023-05-02T11:47:44;3.83;;;1.73;;
19830;SDS011;10076;52.008;4.708;2023-05-02T11:50:12;5.22;;;1.90;;
19830;SDS011;10076;52.008;4.708;2023-05-02T11:52:38;4.60;;;2.10;;
19830;SDS011;10076;52.008;4.708;2023-05-02T11:55:05;5.35;;;1.98;;
19830;SDS011;10076;52.008;4.708;2023-05-02T11:57:33;4.25;;;1.90;;
19830;SDS011;10076;52.008;4.708;2023-05-02T11:59:58;4.93;;;2.10;;
19830;SDS011;10076;52.008;4.708;2023-05-02T12:02:40;2.10;;;1.85;;
19830;SDS011;10076;52.008;4.708;2023-05-02T12:05:09;3.17;;;2.10;;
19830;SDS011;10076;52.008;4.708;2023-05-02T12:10:13;2.95;;;1.95;;
19830;SDS011;10076;52.008;4.708;2023-05-02T12:12:39;3.92;;;2.20;;
19830;SDS011;10076;52.008;4.708;2023-05-02T12:15:08;3.47;;;2.15;;
19830;SDS011;10076;52.008;4.708;2023-05-02T12:17:39;4.68;;;2.30;;
19830;SDS011;10076;52.008;4.708;2023-05-02T12:20:06;3.08;;;2.20;;
19830;SDS011;10076;52.008;4.708;2023-05-02T12:22:33;5.25;;;2.25;;
19830;SDS011;10076;52.008;4.708;2023-05-02T12:24:59;3.35;;;1.95;;
19830;SDS011;10076;52.008;4.708;2023-05-02T12:27:24;5.47;;;1.95;;
19830;SDS011;10076;52.008;4.708;2023-05-02T12:29:51;2.72;;;2.22;;
19830;SDS011;10076;52.008;4.708;2023-05-02T12:32:26;4.75;;;2.25;;
19830;SDS011;10076;52.008;4.708;2023-05-02T12:34:56;3.33;;;1.98;;
19830;SDS011;10076;52.008;4.708;2023-05-02T12:37:22;3.00;;;1.98;;
19830;SDS011;10076;52.008;4.708;2023-05-02T12:39:49;2.85;;;2.10;;
19830;SDS011;10076;52.008;4.708;2023-05-02T12:42:15;3.72;;;2.20;;
19830;SDS011;10076;52.008;4.708;2023-05-02T12:44:42;4.53;;;2.38;;
19830;SDS011;10076;52.008;4.708;2023-05-02T12:47:15;6.75;;;2.28;;
19830;SDS011;10076;52.008;4.708;2023-05-02T12:49:50;3.92;;;2.10;;
19830;SDS011;10076;52.008;4.708;2023-05-02T12:52:20;6.47;;;1.95;;
19830;SDS011;10076;52.008;4.708;2023-05-02T12:55:19;4.57;;;1.80;;
19830;SDS011;10076;52.008;4.708;2023-05-02T12:57:47;5.60;;;2.13;;
19830;SDS011;10076;52.008;4.708;2023-05-02T13:00:12;3.88;;;2.03;;
19830;SDS011;10076;52.008;4.708;2023-05-02T13:02:40;3.38;;;2.30;;
19830;SDS011;10076;52.008;4.708;2023-05-02T13:05:15;3.78;;;2.30;;
19830;SDS011;10076;52.008;4.708;2023-05-02T13:07:41;2.90;;;1.85;;
19830;SDS011;10076;52.008;4.708;2023-05-02T13:10:07;4.38;;;1.58;;
19830;SDS011;10076;52.008;4.708;2023-05-02T13:12:33;3.67;;;1.60;;
19830;SDS011;10076;52.008;4.708;2023-05-02T13:15:01;4.50;;;2.10;;
19830;SDS011;10076;52.008;4.708;2023-05-02T13:17:27;6.18;;;2.80;;
19830;SDS011;10076;52.008;4.708;2023-05-02T13:19:53;4.88;;;2.10;;
19830;SDS011;10076;52.008;4.708;2023-05-02T13:22:18;3.80;;;1.83;;
19830;SDS011;10076;52.008;4.708;2023-05-02T13:24:43;5.00;;;1.58;;
19830;SDS011;10076;52.008;4.708;2023-05-02T13:27:10;2.85;;;1.50;;
19830;SDS011;10076;52.008;4.708;2023-05-02T13:29:35;4.30;;;1.73;;
19830;SDS011;10076;52.008;4.708;2023-05-02T13:32:01;7.13;;;1.80;;
19830;SDS011;10076;52.008;4.708;2023-05-02T13:34:26;3.45;;;2.13;;
19830;SDS011;10076;52.008;4.708;2023-05-02T13:36:51;3.38;;;2.25;;
19830;SDS011;10076;52.008;4.708;2023-05-02T13:39:17;2.70;;;1.60;;
19830;SDS011;10076;52.008;4.708;2023-05-02T13:41:42;3.08;;;2.10;;
19830;SDS011;10076;52.008;4.708;2023-05-02T13:44:07;3.20;;;2.22;;
19830;SDS011;10076;52.008;4.708;2023-05-02T13:46:33;3.10;;;1.98;;
19830;SDS011;10076;52.008;4.708;2023-05-02T13:49:01;3.40;;;2.30;;
19830;SDS011;10076;52.008;4.708;2023-05-02T13:51:27;4.63;;;2.00;;
19830;SDS011;10076;52.008;4.708;2023-05-02T13:53:55;6.13;;;2.17;;
19830;SDS011;10076;52.008;4.708;2023-05-02T13:56:21;9.73;;;4.10;;
19830;SDS011;10076;52.008;4.708;2023-05-02T13:58:46;4.70;;;2.10;;
19830;SDS011;10076;52.008;4.708;2023-05-02T14:01:11;4.35;;;1.85;;
19830;SDS011;10076;52.008;4.708;2023-05-02T14:03:37;7.63;;;3.63;;
19830;SDS011;10076;52.008;4.708;2023-05-02T14:06:02;7.68;;;2.80;;
19830;SDS011;10076;52.008;4.708;2023-05-02T14:08:27;2.97;;;1.63;;
19830;SDS011;10076;52.008;4.708;2023-05-02T14:10:52;4.30;;;2.20;;
19830;SDS011;10076;52.008;4.708;2023-05-02T14:13:18;4.65;;;2.90;;
19830;SDS011;10076;52.008;4.708;2023-05-02T14:15:43;2.58;;;2.08;;
19830;SDS011;10076;52.008;4.708;2023-05-02T14:18:08;3.38;;;1.98;;
19830;SDS011;10076;52.008;4.708;2023-05-02T14:20:34;7.25;;;2.58;;
19830;SDS011;10076;52.008;4.708;2023-05-02T14:22:59;6.25;;;2.13;;
19830;SDS011;10076;52.008;4.708;2023-05-02T14:25:24;7.97;;;2.40;;
19830;SDS011;10076;52.008;4.708;2023-05-02T14:27:50;5.20;;;2.85;;
19830;SDS011;10076;52.008;4.708;2023-05-02T14:30:15;6.78;;;2.40;;
19830;SDS011;10076;52.008;4.708;2023-05-02T14:32:40;3.50;;;2.72;;
19830;SDS011;10076;52.008;4.708;2023-05-02T14:35:06;5.75;;;2.40;;
19830;SDS011;10076;52.008;4.708;2023-05-02T14:37:31;6.10;;;2.45;;
19830;SDS011;10076;52.008;4.708;2023-05-02T14:39:56;3.17;;;1.90;;
19830;SDS011;10076;52.008;4.708;2023-05-02T14:42:22;8.63;;;1.98;;
19830;SDS011;10076;52.008;4.708;2023-05-02T14:44:48;6.90;;;2.00;;
19830;SDS011;10076;52.008;4.708;2023-05-02T14:47:13;4.88;;;1.92;;
19830;SDS011;10076;52.008;4.708;2023-05-02T14:49:39;4.75;;;2.15;;
19830;SDS011;10076;52.008;4.708;2023-05-02T14:52:04;4.03;;;2.20;;
19830;SDS011;10076;52.008;4.708;2023-05-02T14:54:29;4.97;;;2.13;;
19830;SDS011;10076;52.008;4.708;2023-05-02T14:56:55;3.67;;;2.00;;
19830;SDS011;10076;52.008;4.708;2023-05-02T14:59:20;3.25;;;1.80;;
19830;SDS011;10076;52.008;4.708;2023-05-02T15:01:46;3.30;;;2.20;;
19830;SDS011;10076;52.008;4.708;2023-05-02T15:04:11;4.10;;;2.10;;
19830;SDS011;10076;52.008;4.708;2023-05-02T15:06:37;2.53;;;2.20;;
19830;SDS011;10076;52.008;4.708;2023-05-02T15:09:03;6.07;;;2.47;;
19830;SDS011;10076;52.008;4.708;2023-05-02T15:11:29;3.75;;;2.22;;
19830;SDS011;10076;52.008;4.708;2023-05-02T15:13:55;4.15;;;1.77;;
19830;SDS011;10076;52.008;4.708;2023-05-02T15:16:20;5.78;;;2.08;;
19830;SDS011;10076;52.008;4.708;2023-05-02T15:18:45;3.50;;;1.70;;
19830;SDS011;10076;52.008;4.708;2023-05-02T15:21:11;2.80;;;1.80;;
19830;SDS011;10076;52.008;4.708;2023-05-02T15:23:36;2.72;;;1.63;;
19830;SDS011;10076;52.008;4.708;2023-05-02T15:26:02;4.13;;;2.00;;
19830;SDS011;10076;52.008;4.708;2023-05-02T15:28:27;4.72;;;1.80;;
19830;SDS011;10076;52.008;4.708;2023-05-02T15:30:53;5.22;;;1.73;;
19830;SDS011;10076;52.008;4.708;2023-05-02T15:33:18;5.05;;;1.88;;
19830;SDS011;10076;52.008;4.708;2023-05-02T15:35:53;3.38;;;1.60;;
19830;SDS011;10076;52.008;4.708;2023-05-02T15:38:19;3.50;;;1.70;;
19830;SDS011;10076;52.008;4.708;2023-05-02T15:40:52;3.88;;;1.90;;